createdAt,value
2017-07-03T00:00:02.437Z,75.58
2017-07-03T00:02:29.848Z,75.18
2017-07-03T00:04:57.295Z,76.09
2017-07-03T00:07:24.728Z,75.77
2017-07-03T00:09:52.140Z,75.73
2017-07-03T00:12:19.580Z,75.52
2017-07-03T00:14:47.061Z,75.12
2017-07-03T00:17:14.464Z,76.50
2017-07-03T00:19:41.924Z,76.27
2017-07-03T00:22:09.345Z,75.44
2017-07-03T00:24:36.735Z,75.12
2017-07-03T00:27:04.176Z,75.59
2017-07-03T00:29:31.611Z,75.42
2017-07-03T00:31:59.016Z,75.62
2017-07-03T00:34:26.461Z,75.95
2017-07-03T00:36:53.877Z,75.23
2017-07-03T00:39:21.280Z,74.86
2017-07-03T00:41:48.717Z,74.98
2017-07-03T00:44:16.173Z,75.34
2017-07-03T00:46:43.604Z,75.18
2017-07-03T00:49:11.047Z,74.98
2017-07-03T00:51:38.484Z,76.25
2017-07-03T00:54:05.922Z,75.67
2017-07-03T00:56:33.416Z,75.85
2017-07-03T00:59:00.848Z,75.44
2017-07-03T01:01:28.296Z,75.71
2017-07-03T01:03:55.732Z,75.40
2017-07-03T01:06:23.138Z,75.71
2017-07-03T01:08:50.571Z,76.65
2017-07-03T01:11:18.004Z,76.19
2017-07-03T01:13:45.550Z,75.73
2017-07-03T01:16:13.073Z,75.12
2017-07-03T01:18:40.496Z,75.61
2017-07-03T01:21:07.906Z,76.00
2017-07-03T01:23:35.348Z,75.84
2017-07-03T01:26:02.752Z,75.60
2017-07-03T01:28:30.164Z,74.98
2017-07-03T01:30:57.680Z,74.80
2017-07-03T01:33:25.089Z,75.42
2017-07-03T01:35:52.578Z,74.92
2017-07-03T01:38:19.975Z,75.32
2017-07-03T01:40:48.248Z,75.00
2017-07-03T01:43:15.676Z,75.99
2017-07-03T01:45:43.092Z,76.46
2017-07-03T01:48:10.519Z,76.25
2017-07-03T01:50:37.959Z,76.84
2017-07-03T01:53:05.396Z,77.92
2017-07-03T01:55:33.316Z,77.71
2017-07-03T01:58:00.758Z,77.88
2017-07-03T02:00:28.143Z,78.25
2017-07-03T02:02:55.581Z,76.99
2017-07-03T02:05:22.991Z,76.86
2017-07-03T02:07:50.411Z,76.73
2017-07-03T02:10:17.880Z,77.01
2017-07-03T02:12:45.288Z,76.63
2017-07-03T02:15:12.729Z,76.41
2017-07-03T02:17:40.139Z,77.58
2017-07-03T02:20:07.577Z,76.80
2017-07-03T02:22:35.089Z,76.29
2017-07-03T02:25:02.479Z,76.00
2017-07-03T02:27:29.921Z,75.72
2017-07-03T02:29:57.327Z,76.23
2017-07-03T02:32:24.768Z,76.08
2017-07-03T02:34:52.185Z,76.58
2017-07-03T02:37:19.631Z,76.31
2017-07-03T02:39:47.052Z,76.42
2017-07-03T02:42:14.455Z,76.29
2017-07-03T02:44:41.911Z,76.33
2017-07-03T02:47:09.326Z,76.12
2017-07-03T02:49:36.815Z,76.11
2017-07-03T02:52:04.271Z,76.03
2017-07-03T02:54:31.696Z,76.21
2017-07-03T02:56:59.141Z,76.09
2017-07-03T02:59:26.607Z,76.04
2017-07-03T03:01:54.080Z,76.12
2017-07-03T03:04:21.491Z,75.90
2017-07-03T03:06:48.968Z,75.85
2017-07-03T03:09:16.384Z,76.09
2017-07-03T03:11:43.817Z,75.83
2017-07-03T03:14:11.300Z,75.70
2017-07-03T03:16:38.741Z,75.78
2017-07-03T03:19:06.149Z,75.56
2017-07-03T03:21:33.627Z,75.29
2017-07-03T03:24:01.084Z,75.45
2017-07-03T03:26:28.551Z,75.39
2017-07-03T03:28:55.992Z,75.29
2017-07-03T03:31:23.464Z,74.63
2017-07-03T03:33:50.921Z,74.98
2017-07-03T03:36:18.371Z,75.39
2017-07-03T03:38:45.771Z,75.50
2017-07-03T03:41:13.256Z,75.42
2017-07-03T03:43:40.681Z,75.58
2017-07-03T03:46:08.148Z,75.45
2017-07-03T03:48:35.580Z,75.92
2017-07-03T03:51:03.001Z,75.86
2017-07-03T03:53:30.429Z,75.77
2017-07-03T03:55:57.867Z,75.61
2017-07-03T03:58:25.289Z,75.99
2017-07-03T04:00:52.831Z,75.70
2017-07-03T04:03:20.401Z,75.86
2017-07-03T04:05:47.809Z,75.87
2017-07-03T04:08:15.296Z,75.98
2017-07-03T04:10:42.728Z,76.41
2017-07-03T04:13:10.204Z,75.89
2017-07-03T04:15:37.632Z,75.69
2017-07-03T04:18:05.096Z,75.19
2017-07-03T04:20:32.593Z,75.49
2017-07-03T04:23:00.093Z,75.25
2017-07-03T04:25:27.516Z,74.99
2017-07-03T04:27:54.979Z,75.09
2017-07-03T04:30:22.396Z,75.49
2017-07-03T04:32:49.824Z,76.25
2017-07-03T04:35:17.300Z,75.34
2017-07-03T04:37:44.839Z,76.03
2017-07-03T04:40:12.303Z,75.84
2017-07-03T04:42:39.752Z,75.64
2017-07-03T04:45:07.174Z,76.43
2017-07-03T04:47:34.584Z,76.24
2017-07-03T04:50:02.024Z,76.21
2017-07-03T04:52:29.433Z,75.79
2017-07-03T04:54:57.056Z,75.34
2017-07-03T04:57:24.832Z,75.37
2017-07-03T04:59:52.327Z,75.62
2017-07-03T05:02:19.746Z,75.40
2017-07-03T05:04:47.149Z,75.57
2017-07-03T05:07:14.699Z,75.89
2017-07-03T05:09:42.104Z,76.26
2017-07-03T05:12:09.557Z,76.84
2017-07-03T05:14:36.989Z,76.66
2017-07-03T05:17:04.386Z,76.18
2017-07-03T05:19:32.046Z,75.97
2017-07-03T05:21:59.775Z,75.90
2017-07-03T05:24:27.180Z,75.62
2017-07-03T05:26:54.588Z,75.24
2017-07-03T05:29:22.032Z,75.13
2017-07-03T05:31:49.497Z,74.54
2017-07-03T05:34:16.912Z,74.40
2017-07-03T05:36:44.348Z,74.09
2017-07-03T05:39:11.895Z,73.83
2017-07-03T05:41:39.331Z,74.36
2017-07-03T05:44:12.271Z,73.54
2017-07-03T05:46:39.692Z,73.78
2017-07-03T05:49:07.127Z,74.87
2017-07-03T05:51:34.557Z,74.12
2017-07-03T05:54:02.040Z,73.86
2017-07-03T05:56:30.233Z,73.10
2017-07-03T05:58:57.667Z,72.18
2017-07-03T06:01:25.089Z,71.79
2017-07-03T06:03:52.517Z,71.00
2017-07-03T06:06:20.090Z,72.69
2017-07-03T06:08:47.504Z,72.10
2017-07-03T06:11:14.989Z,72.19
2017-07-03T06:13:42.440Z,71.67
2017-07-03T06:16:09.880Z,71.13
2017-07-03T06:18:37.284Z,70.74
2017-07-03T06:21:04.730Z,70.38
2017-07-03T06:23:32.136Z,69.26
2017-07-03T06:25:59.578Z,69.32
2017-07-03T06:28:27.011Z,68.19
2017-07-03T06:30:54.418Z,67.70
2017-07-03T06:33:21.868Z,67.60
2017-07-03T06:35:49.375Z,68.12
2017-07-03T06:38:17.157Z,67.50
2017-07-03T06:40:44.586Z,67.88
2017-07-03T06:43:12.002Z,67.21
2017-07-03T06:45:39.454Z,66.97
2017-07-03T06:48:06.859Z,67.39
2017-07-03T06:50:34.300Z,65.96
2017-07-03T06:53:01.748Z,66.54
2017-07-03T06:55:29.164Z,65.60
2017-07-03T06:57:56.615Z,66.08
2017-07-03T07:00:24.024Z,65.97
2017-07-03T07:02:51.454Z,64.25
2017-07-03T07:05:18.879Z,62.43
2017-07-03T07:07:46.293Z,62.64
2017-07-03T07:10:13.740Z,63.08
2017-07-03T07:12:41.152Z,62.87
2017-07-03T07:15:08.571Z,61.60
2017-07-03T07:17:36.019Z,61.07
2017-07-03T07:20:03.428Z,61.85
2017-07-03T07:22:30.875Z,60.51
2017-07-03T07:24:58.296Z,59.79
2017-07-03T07:27:25.703Z,59.77
2017-07-03T07:29:53.138Z,59.53
2017-07-03T07:32:20.544Z,59.04
2017-07-03T07:34:48.019Z,59.24
2017-07-03T07:37:15.428Z,59.37
2017-07-03T07:39:42.858Z,59.98
2017-07-03T07:42:10.406Z,59.00
2017-07-03T07:44:37.833Z,58.70
2017-07-03T07:47:05.247Z,58.46
2017-07-03T07:49:32.728Z,56.95
2017-07-03T07:52:00.176Z,56.14
2017-07-03T07:54:27.679Z,54.75
2017-07-03T07:56:55.084Z,55.07
2017-07-03T07:59:22.542Z,55.05
2017-07-03T08:01:49.959Z,54.44
2017-07-03T08:04:17.365Z,54.12
2017-07-03T08:06:44.816Z,55.68
2017-07-03T08:09:12.832Z,52.87
2017-07-03T08:11:40.344Z,54.99
2017-07-03T08:14:07.801Z,54.26
2017-07-03T08:16:35.223Z,54.11
2017-07-03T08:19:02.771Z,54.83
2017-07-03T08:21:30.195Z,54.82
2017-07-03T08:23:57.619Z,55.76
2017-07-03T08:26:25.103Z,56.20
2017-07-03T08:28:52.624Z,56.38
2017-07-03T08:31:20.063Z,56.17
2017-07-03T08:33:47.498Z,55.93
2017-07-03T08:36:14.959Z,56.07
2017-07-03T08:38:42.412Z,54.75
2017-07-03T08:41:09.892Z,50.86
2017-07-03T08:43:37.327Z,51.57
2017-07-03T08:46:04.739Z,51.40
2017-07-03T08:48:32.202Z,47.50
2017-07-03T08:50:59.602Z,49.68
2017-07-03T08:53:27.016Z,48.29
2017-07-03T08:55:54.464Z,48.34
2017-07-03T08:58:21.882Z,49.03
2017-07-03T09:00:49.340Z,49.77
2017-07-03T09:03:16.763Z,50.25
2017-07-03T09:05:44.173Z,52.21
2017-07-03T09:08:11.670Z,50.55
2017-07-03T09:10:39.079Z,50.66
2017-07-03T09:13:06.531Z,49.97
2017-07-03T09:15:33.967Z,50.62
2017-07-03T09:18:01.384Z,48.36
2017-07-03T09:20:28.835Z,49.05
2017-07-03T09:22:56.269Z,49.40
2017-07-03T09:25:23.703Z,48.89
2017-07-03T09:27:51.108Z,48.41
2017-07-03T09:30:18.543Z,49.00
2017-07-03T09:32:45.988Z,49.37
2017-07-03T09:35:13.416Z,48.08
2017-07-03T09:37:40.843Z,47.76
2017-07-03T09:40:08.385Z,48.01
2017-07-03T09:42:35.899Z,47.38
2017-07-03T09:45:03.383Z,46.90
2017-07-03T09:47:31.407Z,46.93
2017-07-03T09:49:59.485Z,47.68
2017-07-03T09:52:26.961Z,48.07
2017-07-03T09:54:54.381Z,46.83
2017-07-03T09:57:21.840Z,46.62
2017-07-03T09:59:49.255Z,46.10
2017-07-03T10:02:16.668Z,46.08
2017-07-03T10:04:44.253Z,46.74
2017-07-03T10:07:12.517Z,46.17
2017-07-03T10:09:40.009Z,47.63
2017-07-03T10:12:07.416Z,47.02
2017-07-03T10:14:34.835Z,46.70
2017-07-03T10:17:02.387Z,47.82
2017-07-03T10:19:29.931Z,47.09
2017-07-03T10:21:57.400Z,44.98
2017-07-03T10:24:24.835Z,41.76
2017-07-03T10:26:52.267Z,40.56
2017-07-03T10:29:19.680Z,42.39
2017-07-03T10:31:47.138Z,40.68
2017-07-03T10:34:14.550Z,42.03
2017-07-03T10:36:42.021Z,41.23
2017-07-03T10:39:09.545Z,41.11
2017-07-03T10:41:36.949Z,40.57
2017-07-03T10:44:04.363Z,41.28
2017-07-03T10:46:31.851Z,42.28
2017-07-03T10:48:59.244Z,41.68
2017-07-03T10:51:26.687Z,41.42
2017-07-03T10:53:54.164Z,42.06
2017-07-03T10:56:21.580Z,42.46
2017-07-03T10:58:49.025Z,42.45
2017-07-03T11:01:16.425Z,43.29
2017-07-03T11:03:43.857Z,43.43
2017-07-03T11:06:11.305Z,43.02
2017-07-03T11:08:38.757Z,42.03
2017-07-03T11:11:06.284Z,42.80
2017-07-03T11:13:33.724Z,42.34
2017-07-03T11:16:01.136Z,41.16
2017-07-03T11:18:28.540Z,39.38
2017-07-03T11:20:55.988Z,40.73
2017-07-03T11:23:23.404Z,41.65
2017-07-03T11:25:50.866Z,43.20
2017-07-03T11:28:18.427Z,43.89
2017-07-03T11:30:45.948Z,43.93
2017-07-03T11:33:13.364Z,43.35
2017-07-03T11:35:40.764Z,41.45
2017-07-03T11:38:08.241Z,43.29
2017-07-03T11:40:35.809Z,41.53
2017-07-03T11:43:03.223Z,40.72
2017-07-03T11:45:30.652Z,40.04
2017-07-03T11:47:58.184Z,40.38
2017-07-03T11:50:25.960Z,40.90
2017-07-03T11:52:53.385Z,40.39
2017-07-03T11:55:20.835Z,40.84
2017-07-03T11:57:48.295Z,41.61
2017-07-03T12:00:15.711Z,39.42
2017-07-03T12:02:43.190Z,39.34
2017-07-03T12:05:10.582Z,39.45
2017-07-03T12:07:38.006Z,39.05
2017-07-03T12:10:05.524Z,40.28
2017-07-03T12:12:32.943Z,38.78
2017-07-03T12:15:00.418Z,39.82
2017-07-03T12:17:27.848Z,39.17
2017-07-03T12:19:55.268Z,39.72
2017-07-03T12:22:22.745Z,41.72
2017-07-03T12:24:50.192Z,39.74
2017-07-03T12:27:17.705Z,39.88
2017-07-03T12:29:45.137Z,39.70
2017-07-03T12:32:12.577Z,38.61
2017-07-03T12:34:39.996Z,39.52
2017-07-03T12:37:07.409Z,37.55
2017-07-03T12:39:34.968Z,38.90
2017-07-03T12:42:02.413Z,40.88
2017-07-03T12:44:29.911Z,40.49
2017-07-03T12:46:57.444Z,36.78
2017-07-03T12:49:24.906Z,38.96
2017-07-03T12:51:52.335Z,37.77
2017-07-03T12:54:19.749Z,35.58
2017-07-03T12:56:47.185Z,31.75
2017-07-03T12:59:14.680Z,33.89
2017-07-03T13:01:42.127Z,35.50
2017-07-03T13:04:09.637Z,36.76
2017-07-03T13:06:37.122Z,35.72
2017-07-03T13:09:04.551Z,38.20
2017-07-03T13:11:32.009Z,38.91
2017-07-03T13:13:59.457Z,39.27
2017-07-03T13:16:26.939Z,38.54
2017-07-03T13:18:54.372Z,37.97
2017-07-03T13:21:21.777Z,37.60
2017-07-03T13:23:49.305Z,38.56
2017-07-03T13:26:16.723Z,38.18
2017-07-03T13:28:44.147Z,36.81
2017-07-03T13:31:11.570Z,31.48
2017-07-03T13:33:39.040Z,28.80
2017-07-03T13:36:06.479Z,27.91
2017-07-03T13:38:33.902Z,28.79
2017-07-03T13:41:01.394Z,26.89
2017-07-03T13:43:28.801Z,27.08
2017-07-03T13:45:56.252Z,27.53
2017-07-03T13:48:23.664Z,27.56
2017-07-03T13:50:51.113Z,27.77
2017-07-03T13:53:18.532Z,27.05
2017-07-03T13:55:45.995Z,27.16
2017-07-03T13:58:13.624Z,29.63
2017-07-03T14:00:41.142Z,28.46
2017-07-03T14:03:08.575Z,27.96
2017-07-03T14:05:36.052Z,28.22
2017-07-03T14:08:03.468Z,25.82
2017-07-03T14:10:31.124Z,26.34
2017-07-03T14:12:58.576Z,27.77
2017-07-03T14:15:26.029Z,29.59
2017-07-03T14:17:53.432Z,30.35
2017-07-03T14:20:20.915Z,31.66
2017-07-03T14:22:48.372Z,31.88
2017-07-03T14:25:15.764Z,33.35
2017-07-03T14:27:43.173Z,32.88
2017-07-03T14:30:10.629Z,30.65
2017-07-03T14:32:38.069Z,29.85
2017-07-03T14:35:05.518Z,31.73
2017-07-03T14:37:33.056Z,30.56
2017-07-03T14:40:00.484Z,28.40
2017-07-03T14:42:27.933Z,28.41
2017-07-03T14:44:55.363Z,28.87
2017-07-03T14:47:22.808Z,29.08
2017-07-03T14:49:50.248Z,30.50
2017-07-03T14:52:17.677Z,31.16
2017-07-03T14:54:45.225Z,32.73
2017-07-03T14:57:12.788Z,33.88
2017-07-03T14:59:40.197Z,32.52
2017-07-03T15:02:07.636Z,31.17
2017-07-03T15:04:35.049Z,29.76
2017-07-03T15:07:02.521Z,28.99
2017-07-03T15:09:29.965Z,28.83
2017-07-03T15:11:57.423Z,30.53
2017-07-03T15:14:24.974Z,31.19
2017-07-03T15:16:52.384Z,32.10
2017-07-03T15:19:19.911Z,32.64
2017-07-03T15:21:47.398Z,32.31
2017-07-03T15:24:14.797Z,31.94
2017-07-03T15:26:42.251Z,32.96
2017-07-03T15:29:09.741Z,33.21
2017-07-03T15:31:37.224Z,33.08
2017-07-03T15:34:04.732Z,33.22
2017-07-03T15:36:32.162Z,32.75
2017-07-03T15:39:00.229Z,32.99
2017-07-03T15:41:27.636Z,33.54
2017-07-03T15:43:55.063Z,33.07
2017-07-03T15:46:22.549Z,34.00
2017-07-03T15:48:49.956Z,35.04
2017-07-03T15:51:17.433Z,34.71
2017-07-03T15:53:44.902Z,33.51
2017-07-03T15:56:12.305Z,32.52
2017-07-03T15:58:39.773Z,33.91
2017-07-03T16:01:07.220Z,33.93
2017-07-03T16:03:34.642Z,33.83
2017-07-03T16:06:02.100Z,33.44
2017-07-03T16:08:29.528Z,33.49
2017-07-03T16:10:56.964Z,33.35
2017-07-03T16:13:24.455Z,33.29
2017-07-03T16:15:51.825Z,34.70
2017-07-03T16:18:19.309Z,35.29
2017-07-03T16:20:46.708Z,36.12
2017-07-03T16:23:14.132Z,35.93
2017-07-03T16:25:41.641Z,34.71
2017-07-03T16:28:09.037Z,34.96
2017-07-03T16:30:36.507Z,35.12
2017-07-03T16:33:03.948Z,34.44
2017-07-03T16:35:42.997Z,34.83
2017-07-03T16:38:10.535Z,35.51
2017-07-03T16:40:38.005Z,36.18
2017-07-03T16:43:05.892Z,35.92
2017-07-03T16:45:42.067Z,35.21
2017-07-03T16:51:00.772Z,35.73
2017-07-03T16:53:29.943Z,36.35
2017-07-03T16:55:59.234Z,35.33
2017-07-03T16:58:29.658Z,36.09
2017-07-03T17:00:58.704Z,35.49
2017-07-03T17:03:26.229Z,35.71
2017-07-03T17:05:55.065Z,35.48
2017-07-03T17:08:23.302Z,36.10
2017-07-03T17:10:50.772Z,35.28
2017-07-03T17:13:18.200Z,34.84
2017-07-03T17:15:46.679Z,34.70
2017-07-03T17:18:15.448Z,34.77
2017-07-03T17:20:44.694Z,36.54
2017-07-03T17:23:13.659Z,35.13
2017-07-03T17:25:42.352Z,35.26
2017-07-03T17:28:09.785Z,36.13
2017-07-03T17:30:38.874Z,36.03
2017-07-03T17:33:08.151Z,36.21
2017-07-03T17:35:35.565Z,36.45
2017-07-03T17:38:04.556Z,37.04
2017-07-03T17:40:34.301Z,37.93
2017-07-03T17:43:01.794Z,38.29
2017-07-03T17:45:30.222Z,36.19
2017-07-03T17:47:58.126Z,36.04
2017-07-03T17:50:25.575Z,36.97
2017-07-03T17:52:53.017Z,38.51
2017-07-03T17:55:21.387Z,38.93
2017-07-03T17:57:50.542Z,38.93
2017-07-03T18:00:18.951Z,39.47
2017-07-03T18:02:48.375Z,39.46
2017-07-03T18:05:16.096Z,39.06
2017-07-03T18:07:43.555Z,38.80
2017-07-03T18:10:11.091Z,38.21
2017-07-03T18:12:39.926Z,38.20
2017-07-03T18:15:07.545Z,38.86
2017-07-03T18:17:35.765Z,37.93
2017-07-03T18:20:05.031Z,37.89
2017-07-03T18:22:32.929Z,38.45
2017-07-03T18:25:03.363Z,38.92
2017-07-03T18:27:32.474Z,39.06
2017-07-03T18:30:01.370Z,39.30
2017-07-03T18:32:30.330Z,39.25
2017-07-03T18:34:59.973Z,39.78
2017-07-03T18:37:29.009Z,40.01
2017-07-03T18:39:58.349Z,40.03
2017-07-03T18:42:27.723Z,40.21
2017-07-03T18:44:56.072Z,40.57
2017-07-03T18:47:25.262Z,40.81
2017-07-03T18:49:54.351Z,41.07
2017-07-03T18:52:23.018Z,41.33
2017-07-03T18:54:52.278Z,41.54
2017-07-03T18:57:19.705Z,41.71
2017-07-03T18:59:47.252Z,41.71
2017-07-03T19:02:14.714Z,42.42
2017-07-03T19:04:44.830Z,42.22
2017-07-03T19:07:12.265Z,42.23
2017-07-03T19:09:40.615Z,42.07
2017-07-03T19:12:08.048Z,42.45
2017-07-03T19:14:35.506Z,42.91
2017-07-03T19:17:03.235Z,43.91
2017-07-03T19:19:32.227Z,43.94
2017-07-03T19:22:00.210Z,44.95
2017-07-03T19:24:27.867Z,45.19
2017-07-03T19:26:55.372Z,45.56
2017-07-03T19:29:24.467Z,45.91
2017-07-03T19:31:54.043Z,46.17
2017-07-03T19:34:24.095Z,45.74
2017-07-03T19:36:51.606Z,48.00
2017-07-03T19:39:19.078Z,46.89
2017-07-03T19:41:48.099Z,48.25
2017-07-03T19:44:16.609Z,46.88
2017-07-03T19:46:44.817Z,49.70
2017-07-03T19:49:12.291Z,47.44
2017-07-03T19:51:39.740Z,48.11
2017-07-03T19:54:07.208Z,47.96
2017-07-03T19:56:34.648Z,48.36
2017-07-03T19:59:03.330Z,49.11
2017-07-03T20:01:32.732Z,50.08
2017-07-03T20:04:02.279Z,49.45
2017-07-03T20:06:31.232Z,49.93
2017-07-03T20:09:01.325Z,50.43
2017-07-03T20:11:30.692Z,50.53
2017-07-03T20:13:59.800Z,50.99
2017-07-03T20:16:28.481Z,51.78
2017-07-03T20:18:56.592Z,51.44
2017-07-03T20:21:25.495Z,50.63
2017-07-03T20:23:55.105Z,50.95
2017-07-03T20:26:24.358Z,51.98
2017-07-03T20:28:51.823Z,51.65
2017-07-03T20:31:19.225Z,51.10
2017-07-03T20:33:46.633Z,51.64
2017-07-03T20:36:14.067Z,52.30
2017-07-03T20:38:41.509Z,52.73
2017-07-03T20:41:10.801Z,52.42
2017-07-03T20:43:38.439Z,53.06
2017-07-03T20:46:05.861Z,51.53
2017-07-03T20:48:33.295Z,52.57
2017-07-03T20:51:00.754Z,53.02
2017-07-03T20:53:28.163Z,52.06
2017-07-03T20:55:55.594Z,51.83
2017-07-03T20:58:23.010Z,52.49
2017-07-03T21:00:50.458Z,52.46
2017-07-03T21:03:17.939Z,52.35
2017-07-03T21:05:45.407Z,53.90
2017-07-03T21:08:13.074Z,53.45
2017-07-03T21:10:40.492Z,53.54
2017-07-03T21:13:07.995Z,54.20
2017-07-03T21:15:35.410Z,54.17
2017-07-03T21:18:02.997Z,53.45
2017-07-03T21:20:30.456Z,54.37
2017-07-03T21:22:57.892Z,53.77
2017-07-03T21:25:25.484Z,53.93
2017-07-03T21:27:52.923Z,54.42
2017-07-03T21:30:22.166Z,54.44
2017-07-03T21:32:49.605Z,54.46
2017-07-03T21:35:17.092Z,54.93
2017-07-03T21:37:44.553Z,54.57
2017-07-03T21:40:11.997Z,55.14
2017-07-03T21:42:39.429Z,55.52
2017-07-03T21:45:06.888Z,55.03
2017-07-03T21:47:34.308Z,55.36
2017-07-03T21:50:01.742Z,55.27
2017-07-03T21:52:29.421Z,55.16
2017-07-03T21:54:56.834Z,55.23
2017-07-03T21:57:24.340Z,55.47
2017-07-03T21:59:51.767Z,55.57
2017-07-03T22:02:19.179Z,56.96
2017-07-03T22:04:46.632Z,56.68
2017-07-03T22:07:16.561Z,57.16
2017-07-03T22:09:43.988Z,57.07
2017-07-03T22:12:11.424Z,56.95
2017-07-03T22:14:38.820Z,57.06
2017-07-03T22:17:06.424Z,57.74
2017-07-03T22:19:35.186Z,58.01
2017-07-03T22:22:02.624Z,57.40
2017-07-03T22:24:30.047Z,57.24
2017-07-03T22:26:57.531Z,57.21
2017-07-03T22:29:24.981Z,57.00
2017-07-03T22:31:52.395Z,57.24
2017-07-03T22:34:21.740Z,57.69
2017-07-03T22:36:49.535Z,57.36
2017-07-03T22:39:17.319Z,58.21
2017-07-03T22:41:46.882Z,57.87
2017-07-03T22:44:15.894Z,57.83
2017-07-03T22:46:45.455Z,57.97
2017-07-03T22:49:14.711Z,58.01
2017-07-03T22:51:44.163Z,58.13
2017-07-03T22:54:13.461Z,58.53
2017-07-03T22:56:42.967Z,58.36
2017-07-03T22:59:10.398Z,58.25
2017-07-03T23:01:37.827Z,58.47
2017-07-03T23:04:05.275Z,58.53
2017-07-03T23:06:32.687Z,58.87
2017-07-03T23:09:01.901Z,58.88
2017-07-03T23:11:29.860Z,59.14
2017-07-03T23:13:57.352Z,59.58
2017-07-03T23:16:24.850Z,59.62
2017-07-03T23:18:52.313Z,60.03
2017-07-03T23:21:20.370Z,60.43
2017-07-03T23:23:47.792Z,60.63
2017-07-03T23:26:15.219Z,60.74
2017-07-03T23:28:44.405Z,61.41
2017-07-03T23:31:11.837Z,61.23
2017-07-03T23:33:39.461Z,61.59
2017-07-03T23:36:06.890Z,61.97
2017-07-03T23:38:34.408Z,61.75
2017-07-03T23:41:01.828Z,61.58
2017-07-03T23:43:29.238Z,61.71
2017-07-03T23:45:57.172Z,62.02
2017-07-03T23:48:24.590Z,61.68
2017-07-03T23:50:53.014Z,61.78
2017-07-03T23:53:20.436Z,61.60
2017-07-03T23:55:47.896Z,61.60
2017-07-03T23:58:15.958Z,62.16
